Terminal Aerodrome Forecast
Issued by NWS Northern Indiana

Home | Current Version | Previous Version | Text Only | Print | Product List | Glossary On
Versions: 1 2 3 4 5 6 7 8 9 10 11 12 13 14
000
FTUS43 KIWX 280500
TAFFWA
TAF
KFWA 280520Z 2806/2906 27008KT P6SM SCT050
     FM281000 24006KT P6SM SCT040 BKN150
     FM281500 18010KT P6SM BKN080=

USA.gov is the U.S. government's official web portal to all federal, state and local government web resources and services.